sensor_id;sensor_type;location;lat;lon;timestamp;P1;durP1;ratioP1;P2;durP2;ratioP2
6928;SDS011;3504;52.616;13.238;2022-08-21T00:03:15;9.50;;;8.35;;
6928;SDS011;3504;52.616;13.238;2022-08-21T00:08:19;8.82;;;7.78;;
6928;SDS011;3504;52.616;13.238;2022-08-21T00:13:21;9.75;;;8.25;;
6928;SDS011;3504;52.616;13.238;2022-08-21T00:18:22;8.57;;;7.78;;
6928;SDS011;3504;52.616;13.238;2022-08-21T00:23:24;13.93;;;9.18;;
6928;SDS011;3504;52.616;13.238;2022-08-21T00:28:25;10.13;;;8.52;;
6928;SDS011;3504;52.616;13.238;2022-08-21T00:33:27;9.18;;;8.27;;
6928;SDS011;3504;52.616;13.238;2022-08-21T00:38:27;10.70;;;9.73;;
6928;SDS011;3504;52.616;13.238;2022-08-21T00:43:31;10.65;;;9.68;;
6928;SDS011;3504;52.616;13.238;2022-08-21T00:48:34;13.45;;;11.00;;
6928;SDS011;3504;52.616;13.238;2022-08-21T00:53:37;12.00;;;10.70;;
6928;SDS011;3504;52.616;13.238;2022-08-21T00:58:41;11.63;;;10.52;;
6928;SDS011;3504;52.616;13.238;2022-08-21T01:03:44;12.55;;;11.35;;
6928;SDS011;3504;52.616;13.238;2022-08-21T01:08:46;11.55;;;10.35;;
6928;SDS011;3504;52.616;13.238;2022-08-21T01:13:48;14.45;;;10.18;;
6928;SDS011;3504;52.616;13.238;2022-08-21T01:18:49;12.50;;;9.93;;
6928;SDS011;3504;52.616;13.238;2022-08-21T01:23:52;11.35;;;10.07;;
6928;SDS011;3504;52.616;13.238;2022-08-21T01:29:05;9.60;;;8.65;;
6928;SDS011;3504;52.616;13.238;2022-08-21T01:34:29;10.63;;;9.10;;
6928;SDS011;3504;52.616;13.238;2022-08-21T01:39:30;10.43;;;8.45;;
6928;SDS011;3504;52.616;13.238;2022-08-21T01:44:32;9.18;;;8.27;;
6928;SDS011;3504;52.616;13.238;2022-08-21T01:49:33;10.52;;;8.77;;
6928;SDS011;3504;52.616;13.238;2022-08-21T01:54:36;9.02;;;7.75;;
6928;SDS011;3504;52.616;13.238;2022-08-21T01:59:38;10.40;;;8.63;;
6928;SDS011;3504;52.616;13.238;2022-08-21T02:04:40;10.63;;;8.73;;
6928;SDS011;3504;52.616;13.238;2022-08-21T02:09:40;9.57;;;8.23;;
6928;SDS011;3504;52.616;13.238;2022-08-21T02:14:43;9.68;;;8.77;;
6928;SDS011;3504;52.616;13.238;2022-08-21T02:19:44;10.43;;;8.50;;
6928;SDS011;3504;52.616;13.238;2022-08-21T02:24:46;9.77;;;7.93;;
6928;SDS011;3504;52.616;13.238;2022-08-21T02:29:46;10.15;;;7.95;;
6928;SDS011;3504;52.616;13.238;2022-08-21T02:34:48;9.43;;;7.22;;
6928;SDS011;3504;52.616;13.238;2022-08-21T02:39:49;10.75;;;6.57;;
6928;SDS011;3504;52.616;13.238;2022-08-21T02:44:51;11.68;;;7.10;;
6928;SDS011;3504;52.616;13.238;2022-08-21T02:49:52;10.15;;;7.20;;
6928;SDS011;3504;52.616;13.238;2022-08-21T02:54:54;10.93;;;6.53;;
6928;SDS011;3504;52.616;13.238;2022-08-21T02:59:54;7.78;;;5.88;;
6928;SDS011;3504;52.616;13.238;2022-08-21T03:04:56;8.43;;;6.00;;
6928;SDS011;3504;52.616;13.238;2022-08-21T03:09:57;9.38;;;6.18;;
6928;SDS011;3504;52.616;13.238;2022-08-21T03:14:58;10.55;;;5.88;;
6928;SDS011;3504;52.616;13.238;2022-08-21T03:19:59;8.65;;;5.75;;
6928;SDS011;3504;52.616;13.238;2022-08-21T03:25:02;6.43;;;5.73;;
6928;SDS011;3504;52.616;13.238;2022-08-21T03:30:04;6.95;;;5.97;;
6928;SDS011;3504;52.616;13.238;2022-08-21T03:35:08;8.37;;;5.57;;
6928;SDS011;3504;52.616;13.238;2022-08-21T03:40:10;6.70;;;5.60;;
6928;SDS011;3504;52.616;13.238;2022-08-21T03:45:15;7.67;;;4.70;;
6928;SDS011;3504;52.616;13.238;2022-08-21T03:50:17;7.90;;;5.53;;
6928;SDS011;3504;52.616;13.238;2022-08-21T03:55:18;7.97;;;5.03;;
6928;SDS011;3504;52.616;13.238;2022-08-21T04:00:19;7.90;;;5.40;;
6928;SDS011;3504;52.616;13.238;2022-08-21T04:05:21;7.20;;;4.63;;
6928;SDS011;3504;52.616;13.238;2022-08-21T04:10:29;6.70;;;5.07;;
6928;SDS011;3504;52.616;13.238;2022-08-21T04:15:33;7.70;;;5.40;;
6928;SDS011;3504;52.616;13.238;2022-08-21T04:20:34;8.60;;;4.90;;
6928;SDS011;3504;52.616;13.238;2022-08-21T04:25:36;9.10;;;5.13;;
6928;SDS011;3504;52.616;13.238;2022-08-21T04:30:36;7.03;;;4.97;;
6928;SDS011;3504;52.616;13.238;2022-08-21T04:35:38;6.27;;;5.00;;
6928;SDS011;3504;52.616;13.238;2022-08-21T04:40:39;6.90;;;4.57;;
6928;SDS011;3504;52.616;13.238;2022-08-21T04:45:42;6.73;;;4.83;;
6928;SDS011;3504;52.616;13.238;2022-08-21T04:50:56;7.17;;;4.70;;
6928;SDS011;3504;52.616;13.238;2022-08-21T04:56:39;7.13;;;5.30;;
6928;SDS011;3504;52.616;13.238;2022-08-21T05:01:42;6.10;;;5.03;;
6928;SDS011;3504;52.616;13.238;2022-08-21T05:06:45;10.83;;;5.53;;
6928;SDS011;3504;52.616;13.238;2022-08-21T05:11:48;8.27;;;5.40;;
6928;SDS011;3504;52.616;13.238;2022-08-21T05:16:51;7.00;;;5.20;;
6928;SDS011;3504;52.616;13.238;2022-08-21T05:21:51;6.63;;;5.47;;
6928;SDS011;3504;52.616;13.238;2022-08-21T05:26:53;8.33;;;4.93;;
6928;SDS011;3504;52.616;13.238;2022-08-21T05:31:54;7.70;;;5.38;;
6928;SDS011;3504;52.616;13.238;2022-08-21T05:36:56;10.37;;;5.00;;
6928;SDS011;3504;52.616;13.238;2022-08-21T05:41:56;6.57;;;4.93;;
6928;SDS011;3504;52.616;13.238;2022-08-21T05:47:08;11.73;;;5.40;;
6928;SDS011;3504;52.616;13.238;2022-08-21T05:52:11;10.32;;;5.38;;
6928;SDS011;3504;52.616;13.238;2022-08-21T05:57:13;6.32;;;4.57;;
6928;SDS011;3504;52.616;13.238;2022-08-21T06:02:13;9.10;;;5.03;;
6928;SDS011;3504;52.616;13.238;2022-08-21T06:07:15;10.97;;;5.10;;
6928;SDS011;3504;52.616;13.238;2022-08-21T06:12:16;10.48;;;5.07;;
6928;SDS011;3504;52.616;13.238;2022-08-21T06:17:17;9.50;;;4.97;;
6928;SDS011;3504;52.616;13.238;2022-08-21T06:22:18;9.82;;;4.82;;
6928;SDS011;3504;52.616;13.238;2022-08-21T06:27:20;5.83;;;4.20;;
6928;SDS011;3504;52.616;13.238;2022-08-21T06:32:21;8.13;;;4.38;;
6928;SDS011;3504;52.616;13.238;2022-08-21T06:37:22;9.90;;;4.85;;
6928;SDS011;3504;52.616;13.238;2022-08-21T06:42:23;5.60;;;4.30;;
6928;SDS011;3504;52.616;13.238;2022-08-21T06:47:24;6.30;;;3.88;;
6928;SDS011;3504;52.616;13.238;2022-08-21T06:52:25;8.55;;;4.03;;
6928;SDS011;3504;52.616;13.238;2022-08-21T06:57:27;11.02;;;4.13;;
6928;SDS011;3504;52.616;13.238;2022-08-21T07:02:27;10.23;;;4.47;;
6928;SDS011;3504;52.616;13.238;2022-08-21T07:07:29;8.38;;;3.80;;
6928;SDS011;3504;52.616;13.238;2022-08-21T07:12:29;7.78;;;4.18;;
6928;SDS011;3504;52.616;13.238;2022-08-21T07:17:31;5.75;;;3.70;;
6928;SDS011;3504;52.616;13.238;2022-08-21T07:22:31;7.25;;;3.58;;
6928;SDS011;3504;52.616;13.238;2022-08-21T07:27:34;8.80;;;3.88;;
6928;SDS011;3504;52.616;13.238;2022-08-21T07:32:34;6.78;;;3.08;;
6928;SDS011;3504;52.616;13.238;2022-08-21T07:37:36;6.47;;;3.15;;
6928;SDS011;3504;52.616;13.238;2022-08-21T07:42:40;7.07;;;3.05;;
6928;SDS011;3504;52.616;13.238;2022-08-21T07:47:43;8.27;;;2.63;;
6928;SDS011;3504;52.616;13.238;2022-08-21T07:52:44;8.88;;;3.08;;
6928;SDS011;3504;52.616;13.238;2022-08-21T07:57:46;5.75;;;2.90;;
6928;SDS011;3504;52.616;13.238;2022-08-21T08:02:48;10.10;;;2.85;;
6928;SDS011;3504;52.616;13.238;2022-08-21T08:07:52;6.05;;;2.53;;
6928;SDS011;3504;52.616;13.238;2022-08-21T08:12:54;4.63;;;3.45;;
6928;SDS011;3504;52.616;13.238;2022-08-21T08:17:55;6.15;;;2.95;;
6928;SDS011;3504;52.616;13.238;2022-08-21T08:22:56;10.57;;;4.63;;
6928;SDS011;3504;52.616;13.238;2022-08-21T08:27:57;9.20;;;4.25;;
6928;SDS011;3504;52.616;13.238;2022-08-21T08:32:58;12.13;;;5.50;;
6928;SDS011;3504;52.616;13.238;2022-08-21T08:38:01;14.50;;;6.63;;
6928;SDS011;3504;52.616;13.238;2022-08-21T08:43:02;7.57;;;3.17;;
6928;SDS011;3504;52.616;13.238;2022-08-21T08:48:04;7.63;;;3.30;;
6928;SDS011;3504;52.616;13.238;2022-08-21T08:53:15;7.82;;;2.97;;
6928;SDS011;3504;52.616;13.238;2022-08-21T08:58:37;7.10;;;2.80;;
6928;SDS011;3504;52.616;13.238;2022-08-21T09:03:42;5.63;;;2.80;;
6928;SDS011;3504;52.616;13.238;2022-08-21T09:14:56;11.82;;;2.60;;
6928;SDS011;3504;52.616;13.238;2022-08-21T09:31:32;8.85;;;3.58;;
6928;SDS011;3504;52.616;13.238;2022-08-21T09:36:44;10.90;;;3.67;;
6928;SDS011;3504;52.616;13.238;2022-08-21T09:41:55;4.57;;;2.45;;
6928;SDS011;3504;52.616;13.238;2022-08-21T09:47:06;6.57;;;2.40;;
6928;SDS011;3504;52.616;13.238;2022-08-21T09:52:18;9.50;;;4.05;;
6928;SDS011;3504;52.616;13.238;2022-08-21T09:57:27;8.18;;;3.88;;
6928;SDS011;3504;52.616;13.238;2022-08-21T10:02:41;7.50;;;3.92;;
6928;SDS011;3504;52.616;13.238;2022-08-21T10:07:43;6.57;;;3.17;;
6928;SDS011;3504;52.616;13.238;2022-08-21T10:29:16;4.00;;;2.00;;
6928;SDS011;3504;52.616;13.238;2022-08-21T10:45:49;3.13;;;1.98;;
6928;SDS011;3504;52.616;13.238;2022-08-21T10:56:29;2.47;;;1.20;;
6928;SDS011;3504;52.616;13.238;2022-08-21T11:01:42;2.08;;;1.48;;
6928;SDS011;3504;52.616;13.238;2022-08-21T11:06:52;2.58;;;1.60;;
6928;SDS011;3504;52.616;13.238;2022-08-21T11:12:09;4.05;;;1.30;;
6928;SDS011;3504;52.616;13.238;2022-08-21T11:17:34;3.47;;;1.40;;
6928;SDS011;3504;52.616;13.238;2022-08-21T11:33:57;3.10;;;1.42;;
6928;SDS011;3504;52.616;13.238;2022-08-21T11:39:16;3.60;;;1.60;;
6928;SDS011;3504;52.616;13.238;2022-08-21T11:50:18;3.15;;;1.70;;
6928;SDS011;3504;52.616;13.238;2022-08-21T11:55:44;4.60;;;1.60;;
6928;SDS011;3504;52.616;13.238;2022-08-21T12:00:58;3.17;;;1.58;;
6928;SDS011;3504;52.616;13.238;2022-08-21T12:06:10;5.53;;;1.73;;
6928;SDS011;3504;52.616;13.238;2022-08-21T12:16:16;4.03;;;1.77;;
6928;SDS011;3504;52.616;13.238;2022-08-21T12:37:47;4.15;;;1.90;;
6928;SDS011;3504;52.616;13.238;2022-08-21T12:43:20;3.15;;;2.17;;
6928;SDS011;3504;52.616;13.238;2022-08-21T12:48:36;5.22;;;2.50;;
6928;SDS011;3504;52.616;13.238;2022-08-21T12:53:52;5.22;;;2.03;;
6928;SDS011;3504;52.616;13.238;2022-08-21T12:59:02;4.55;;;2.50;;
6928;SDS011;3504;52.616;13.238;2022-08-21T13:04:10;3.42;;;2.20;;
6928;SDS011;3504;52.616;13.238;2022-08-21T13:09:18;5.05;;;2.38;;
6928;SDS011;3504;52.616;13.238;2022-08-21T13:19:31;4.30;;;2.22;;
6928;SDS011;3504;52.616;13.238;2022-08-21T13:24:33;6.38;;;2.25;;
6928;SDS011;3504;52.616;13.238;2022-08-21T13:29:38;5.85;;;2.55;;
6928;SDS011;3504;52.616;13.238;2022-08-21T13:34:38;8.00;;;2.40;;
6928;SDS011;3504;52.616;13.238;2022-08-21T13:39:40;7.30;;;2.65;;
6928;SDS011;3504;52.616;13.238;2022-08-21T13:44:42;5.88;;;2.20;;
6928;SDS011;3504;52.616;13.238;2022-08-21T13:49:49;3.30;;;2.13;;
6928;SDS011;3504;52.616;13.238;2022-08-21T13:54:54;5.57;;;2.10;;
6928;SDS011;3504;52.616;13.238;2022-08-21T14:00:24;4.78;;;2.30;;
6928;SDS011;3504;52.616;13.238;2022-08-21T14:05:28;6.07;;;2.45;;
6928;SDS011;3504;52.616;13.238;2022-08-21T14:10:34;6.00;;;2.70;;
6928;SDS011;3504;52.616;13.238;2022-08-21T14:15:41;6.10;;;2.50;;
6928;SDS011;3504;52.616;13.238;2022-08-21T14:20:44;6.05;;;2.20;;
6928;SDS011;3504;52.616;13.238;2022-08-21T14:25:45;5.25;;;2.60;;
6928;SDS011;3504;52.616;13.238;2022-08-21T14:30:47;5.68;;;2.80;;
6928;SDS011;3504;52.616;13.238;2022-08-21T14:35:47;7.25;;;2.55;;
6928;SDS011;3504;52.616;13.238;2022-08-21T14:40:51;4.20;;;2.20;;
6928;SDS011;3504;52.616;13.238;2022-08-21T14:45:55;6.68;;;2.25;;
6928;SDS011;3504;52.616;13.238;2022-08-21T14:50:57;3.10;;;2.33;;
6928;SDS011;3504;52.616;13.238;2022-08-21T14:55:58;6.30;;;2.65;;
6928;SDS011;3504;52.616;13.238;2022-08-21T15:01:06;4.90;;;2.70;;
6928;SDS011;3504;52.616;13.238;2022-08-21T15:06:08;4.70;;;2.70;;
6928;SDS011;3504;52.616;13.238;2022-08-21T15:11:11;4.90;;;2.42;;
6928;SDS011;3504;52.616;13.238;2022-08-21T15:16:21;6.70;;;2.70;;
6928;SDS011;3504;52.616;13.238;2022-08-21T15:21:27;7.03;;;2.80;;
6928;SDS011;3504;52.616;13.238;2022-08-21T15:26:28;5.25;;;2.85;;
6928;SDS011;3504;52.616;13.238;2022-08-21T15:31:29;6.25;;;2.80;;
6928;SDS011;3504;52.616;13.238;2022-08-21T15:36:30;7.28;;;3.22;;
6928;SDS011;3504;52.616;13.238;2022-08-21T15:41:32;10.15;;;3.28;;
6928;SDS011;3504;52.616;13.238;2022-08-21T15:46:33;7.38;;;2.92;;
6928;SDS011;3504;52.616;13.238;2022-08-21T15:51:34;4.85;;;3.03;;
6928;SDS011;3504;52.616;13.238;2022-08-21T15:56:36;5.07;;;2.63;;
6928;SDS011;3504;52.616;13.238;2022-08-21T16:01:42;4.30;;;2.60;;
6928;SDS011;3504;52.616;13.238;2022-08-21T16:06:42;5.10;;;3.08;;
6928;SDS011;3504;52.616;13.238;2022-08-21T16:11:44;4.72;;;2.78;;
6928;SDS011;3504;52.616;13.238;2022-08-21T16:16:45;6.65;;;3.25;;
6928;SDS011;3504;52.616;13.238;2022-08-21T16:21:47;4.80;;;3.22;;
6928;SDS011;3504;52.616;13.238;2022-08-21T16:26:48;5.25;;;2.67;;
6928;SDS011;3504;52.616;13.238;2022-08-21T16:31:50;7.82;;;3.20;;
6928;SDS011;3504;52.616;13.238;2022-08-21T16:36:51;4.85;;;2.63;;
6928;SDS011;3504;52.616;13.238;2022-08-21T16:41:53;5.93;;;3.08;;
6928;SDS011;3504;52.616;13.238;2022-08-21T16:46:54;7.10;;;2.47;;
6928;SDS011;3504;52.616;13.238;2022-08-21T16:51:55;5.45;;;2.47;;
6928;SDS011;3504;52.616;13.238;2022-08-21T16:56:56;5.40;;;2.33;;
6928;SDS011;3504;52.616;13.238;2022-08-21T17:02:00;8.55;;;2.83;;
6928;SDS011;3504;52.616;13.238;2022-08-21T17:07:01;5.30;;;2.70;;
6928;SDS011;3504;52.616;13.238;2022-08-21T17:12:03;8.35;;;2.85;;
6928;SDS011;3504;52.616;13.238;2022-08-21T17:17:05;6.00;;;2.65;;
6928;SDS011;3504;52.616;13.238;2022-08-21T17:22:09;3.85;;;2.30;;
6928;SDS011;3504;52.616;13.238;2022-08-21T17:27:10;5.53;;;2.50;;
6928;SDS011;3504;52.616;13.238;2022-08-21T17:32:13;6.20;;;2.83;;
6928;SDS011;3504;52.616;13.238;2022-08-21T17:37:14;3.67;;;2.38;;
6928;SDS011;3504;52.616;13.238;2022-08-21T17:42:15;5.88;;;2.75;;
6928;SDS011;3504;52.616;13.238;2022-08-21T17:47:17;3.55;;;2.50;;
6928;SDS011;3504;52.616;13.238;2022-08-21T17:52:19;5.18;;;2.63;;
6928;SDS011;3504;52.616;13.238;2022-08-21T17:57:21;5.82;;;2.65;;
6928;SDS011;3504;52.616;13.238;2022-08-21T18:02:24;5.63;;;2.65;;
6928;SDS011;3504;52.616;13.238;2022-08-21T18:07:25;6.25;;;3.05;;
6928;SDS011;3504;52.616;13.238;2022-08-21T18:12:27;5.57;;;3.30;;
6928;SDS011;3504;52.616;13.238;2022-08-21T18:17:29;7.15;;;2.83;;
6928;SDS011;3504;52.616;13.238;2022-08-21T18:22:34;5.75;;;3.00;;
6928;SDS011;3504;52.616;13.238;2022-08-21T18:27:34;4.60;;;3.28;;
6928;SDS011;3504;52.616;13.238;2022-08-21T18:32:36;5.75;;;3.08;;
6928;SDS011;3504;52.616;13.238;2022-08-21T18:37:37;6.40;;;3.28;;
6928;SDS011;3504;52.616;13.238;2022-08-21T18:42:40;5.85;;;3.10;;
6928;SDS011;3504;52.616;13.238;2022-08-21T18:47:45;6.70;;;3.53;;
6928;SDS011;3504;52.616;13.238;2022-08-21T18:52:50;7.03;;;3.92;;
6928;SDS011;3504;52.616;13.238;2022-08-21T18:57:52;5.65;;;3.45;;
6928;SDS011;3504;52.616;13.238;2022-08-21T19:02:55;5.13;;;3.67;;
6928;SDS011;3504;52.616;13.238;2022-08-21T19:07:56;5.20;;;3.80;;
6928;SDS011;3504;52.616;13.238;2022-08-21T19:12:57;7.28;;;4.53;;
6928;SDS011;3504;52.616;13.238;2022-08-21T19:17:58;5.93;;;3.75;;
6928;SDS011;3504;52.616;13.238;2022-08-21T19:23:02;5.57;;;3.40;;
6928;SDS011;3504;52.616;13.238;2022-08-21T19:28:05;9.52;;;3.63;;
6928;SDS011;3504;52.616;13.238;2022-08-21T19:33:12;5.20;;;3.40;;
6928;SDS011;3504;52.616;13.238;2022-08-21T19:38:24;5.90;;;4.10;;
6928;SDS011;3504;52.616;13.238;2022-08-21T19:43:26;9.85;;;4.45;;
6928;SDS011;3504;52.616;13.238;2022-08-21T19:48:27;7.13;;;4.28;;
6928;SDS011;3504;52.616;13.238;2022-08-21T19:53:29;7.03;;;4.00;;
6928;SDS011;3504;52.616;13.238;2022-08-21T19:58:39;5.68;;;4.07;;
6928;SDS011;3504;52.616;13.238;2022-08-21T20:03:47;6.65;;;4.68;;
6928;SDS011;3504;52.616;13.238;2022-08-21T20:08:49;6.22;;;4.40;;
6928;SDS011;3504;52.616;13.238;2022-08-21T20:13:52;6.53;;;4.43;;
6928;SDS011;3504;52.616;13.238;2022-08-21T20:18:53;5.35;;;4.18;;
6928;SDS011;3504;52.616;13.238;2022-08-21T20:23:55;6.50;;;4.30;;
6928;SDS011;3504;52.616;13.238;2022-08-21T20:28:56;7.55;;;4.20;;
6928;SDS011;3504;52.616;13.238;2022-08-21T20:33:58;5.95;;;4.25;;
6928;SDS011;3504;52.616;13.238;2022-08-21T20:38:58;5.75;;;4.55;;
6928;SDS011;3504;52.616;13.238;2022-08-21T20:44:00;7.70;;;4.40;;
6928;SDS011;3504;52.616;13.238;2022-08-21T20:49:02;6.80;;;4.40;;
6928;SDS011;3504;52.616;13.238;2022-08-21T20:59:42;7.35;;;4.80;;
6928;SDS011;3504;52.616;13.238;2022-08-21T21:05:09;7.95;;;5.07;;
6928;SDS011;3504;52.616;13.238;2022-08-21T21:16:07;6.18;;;4.97;;
6928;SDS011;3504;52.616;13.238;2022-08-21T21:21:18;9.00;;;5.22;;
6928;SDS011;3504;52.616;13.238;2022-08-21T21:31:51;9.80;;;6.03;;
6928;SDS011;3504;52.616;13.238;2022-08-21T21:36:59;7.80;;;5.50;;
6928;SDS011;3504;52.616;13.238;2022-08-21T21:42:08;9.85;;;4.88;;
6928;SDS011;3504;52.616;13.238;2022-08-21T21:53:14;9.03;;;4.83;;
6928;SDS011;3504;52.616;13.238;2022-08-21T21:58:58;6.70;;;5.03;;
6928;SDS011;3504;52.616;13.238;2022-08-21T22:09:43;5.87;;;4.50;;
6928;SDS011;3504;52.616;13.238;2022-08-21T22:14:47;6.67;;;4.73;;
6928;SDS011;3504;52.616;13.238;2022-08-21T22:19:49;7.20;;;4.40;;
6928;SDS011;3504;52.616;13.238;2022-08-21T22:24:52;6.50;;;4.80;;
6928;SDS011;3504;52.616;13.238;2022-08-21T22:30:03;10.53;;;5.50;;
6928;SDS011;3504;52.616;13.238;2022-08-21T22:35:21;5.63;;;4.40;;
6928;SDS011;3504;52.616;13.238;2022-08-21T22:40:30;7.43;;;4.37;;
6928;SDS011;3504;52.616;13.238;2022-08-21T22:45:48;5.10;;;4.40;;
6928;SDS011;3504;52.616;13.238;2022-08-21T22:51:07;6.33;;;4.57;;
6928;SDS011;3504;52.616;13.238;2022-08-21T22:56:25;6.65;;;4.78;;
6928;SDS011;3504;52.616;13.238;2022-08-21T23:01:35;4.33;;;3.93;;
6928;SDS011;3504;52.616;13.238;2022-08-21T23:06:44;6.90;;;4.50;;
6928;SDS011;3504;52.616;13.238;2022-08-21T23:12:22;7.43;;;4.73;;
6928;SDS011;3504;52.616;13.238;2022-08-21T23:17:47;5.13;;;4.63;;
6928;SDS011;3504;52.616;13.238;2022-08-21T23:23:06;7.43;;;5.27;;
6928;SDS011;3504;52.616;13.238;2022-08-21T23:34:28;7.63;;;4.50;;
6928;SDS011;3504;52.616;13.238;2022-08-21T23:45:27;5.07;;;4.53;;
6928;SDS011;3504;52.616;13.238;2022-08-21T23:56:12;4.77;;;4.00;;
